sensor_id;sensor_type;location;lat;lon;timestamp;P1;durP1;ratioP1;P2;durP2;ratioP2
34236;SDS011;20501;45.956;13.632;2022-07-22T00:00:14;36.17;;;25.98;;
34236;SDS011;20501;45.956;13.632;2022-07-22T00:02:40;39.75;;;26.38;;
34236;SDS011;20501;45.956;13.632;2022-07-22T00:05:06;33.50;;;25.67;;
34236;SDS011;20501;45.956;13.632;2022-07-22T00:07:32;42.60;;;24.97;;
34236;SDS011;20501;45.956;13.632;2022-07-22T00:09:58;38.88;;;24.58;;
34236;SDS011;20501;45.956;13.632;2022-07-22T00:12:23;34.88;;;25.77;;
34236;SDS011;20501;45.956;13.632;2022-07-22T00:14:49;32.20;;;24.77;;
34236;SDS011;20501;45.956;13.632;2022-07-22T00:17:14;40.10;;;25.07;;
34236;SDS011;20501;45.956;13.632;2022-07-22T00:19:40;36.88;;;25.05;;
34236;SDS011;20501;45.956;13.632;2022-07-22T00:22:06;30.48;;;22.83;;
34236;SDS011;20501;45.956;13.632;2022-07-22T00:24:32;29.47;;;20.97;;
34236;SDS011;20501;45.956;13.632;2022-07-22T00:26:57;34.05;;;24.10;;
34236;SDS011;20501;45.956;13.632;2022-07-22T00:29:23;32.23;;;23.50;;
34236;SDS011;20501;45.956;13.632;2022-07-22T00:31:48;37.57;;;27.73;;
34236;SDS011;20501;45.956;13.632;2022-07-22T00:34:14;41.47;;;30.90;;
34236;SDS011;20501;45.956;13.632;2022-07-22T00:36:39;43.67;;;26.73;;
34236;SDS011;20501;45.956;13.632;2022-07-22T00:39:05;39.23;;;25.97;;
34236;SDS011;20501;45.956;13.632;2022-07-22T00:41:30;39.73;;;27.90;;
34236;SDS011;20501;45.956;13.632;2022-07-22T00:44:03;50.10;;;33.70;;
34236;SDS011;20501;45.956;13.632;2022-07-22T00:46:30;55.38;;;36.55;;
34236;SDS011;20501;45.956;13.632;2022-07-22T00:51:23;42.33;;;30.73;;
34236;SDS011;20501;45.956;13.632;2022-07-22T00:53:50;42.28;;;28.02;;
34236;SDS011;20501;45.956;13.632;2022-07-22T00:56:16;30.73;;;23.50;;
34236;SDS011;20501;45.956;13.632;2022-07-22T00:58:43;29.40;;;21.67;;
34236;SDS011;20501;45.956;13.632;2022-07-22T01:03:35;28.85;;;20.65;;
34236;SDS011;20501;45.956;13.632;2022-07-22T01:06:00;27.30;;;20.80;;
34236;SDS011;20501;45.956;13.632;2022-07-22T01:08:26;29.17;;;21.55;;
34236;SDS011;20501;45.956;13.632;2022-07-22T01:10:52;24.65;;;19.65;;
34236;SDS011;20501;45.956;13.632;2022-07-22T01:13:17;27.98;;;20.20;;
34236;SDS011;20501;45.956;13.632;2022-07-22T01:15:43;31.30;;;21.57;;
34236;SDS011;20501;45.956;13.632;2022-07-22T01:18:08;30.67;;;20.42;;
34236;SDS011;20501;45.956;13.632;2022-07-22T01:20:36;33.50;;;20.87;;
34236;SDS011;20501;45.956;13.632;2022-07-22T01:23:02;30.60;;;20.77;;
34236;SDS011;20501;45.956;13.632;2022-07-22T01:25:28;27.83;;;19.97;;
34236;SDS011;20501;45.956;13.632;2022-07-22T01:27:53;29.00;;;20.47;;
34236;SDS011;20501;45.956;13.632;2022-07-22T01:30:19;24.35;;;20.52;;
34236;SDS011;20501;45.956;13.632;2022-07-22T01:32:44;26.17;;;19.92;;
34236;SDS011;20501;45.956;13.632;2022-07-22T01:35:10;28.63;;;21.00;;
34236;SDS011;20501;45.956;13.632;2022-07-22T01:37:35;31.40;;;20.87;;
34236;SDS011;20501;45.956;13.632;2022-07-22T01:40:01;26.87;;;20.83;;
34236;SDS011;20501;45.956;13.632;2022-07-22T01:42:27;42.77;;;23.20;;
34236;SDS011;20501;45.956;13.632;2022-07-22T01:44:52;28.05;;;20.40;;
34236;SDS011;20501;45.956;13.632;2022-07-22T01:47:18;36.72;;;25.40;;
34236;SDS011;20501;45.956;13.632;2022-07-22T01:49:43;42.37;;;29.77;;
34236;SDS011;20501;45.956;13.632;2022-07-22T01:52:09;42.13;;;31.52;;
34236;SDS011;20501;45.956;13.632;2022-07-22T01:54:34;41.47;;;29.10;;
34236;SDS011;20501;45.956;13.632;2022-07-22T01:57:01;44.77;;;31.40;;
34236;SDS011;20501;45.956;13.632;2022-07-22T01:59:27;44.22;;;32.22;;
34236;SDS011;20501;45.956;13.632;2022-07-22T02:01:52;49.73;;;34.77;;
34236;SDS011;20501;45.956;13.632;2022-07-22T02:04:17;47.55;;;34.28;;
34236;SDS011;20501;45.956;13.632;2022-07-22T02:06:43;50.88;;;31.75;;
34236;SDS011;20501;45.956;13.632;2022-07-22T02:09:08;47.00;;;33.58;;
34236;SDS011;20501;45.956;13.632;2022-07-22T02:11:34;45.20;;;34.13;;
34236;SDS011;20501;45.956;13.632;2022-07-22T02:13:59;49.35;;;35.45;;
34236;SDS011;20501;45.956;13.632;2022-07-22T02:16:25;52.57;;;37.03;;
34236;SDS011;20501;45.956;13.632;2022-07-22T02:18:50;51.73;;;36.33;;
34236;SDS011;20501;45.956;13.632;2022-07-22T02:21:16;53.40;;;38.50;;
34236;SDS011;20501;45.956;13.632;2022-07-22T02:23:41;56.80;;;38.85;;
34236;SDS011;20501;45.956;13.632;2022-07-22T02:26:07;61.58;;;40.33;;
34236;SDS011;20501;45.956;13.632;2022-07-22T02:28:33;61.08;;;41.47;;
34236;SDS011;20501;45.956;13.632;2022-07-22T02:30:58;55.33;;;40.50;;
34236;SDS011;20501;45.956;13.632;2022-07-22T02:33:24;50.40;;;37.35;;
34236;SDS011;20501;45.956;13.632;2022-07-22T02:35:49;58.55;;;40.78;;
34236;SDS011;20501;45.956;13.632;2022-07-22T02:38:15;62.97;;;42.38;;
34236;SDS011;20501;45.956;13.632;2022-07-22T02:40:40;61.40;;;43.70;;
34236;SDS011;20501;45.956;13.632;2022-07-22T02:43:06;61.80;;;43.60;;
34236;SDS011;20501;45.956;13.632;2022-07-22T02:45:31;63.42;;;44.90;;
34236;SDS011;20501;45.956;13.632;2022-07-22T02:47:57;60.33;;;42.10;;
34236;SDS011;20501;45.956;13.632;2022-07-22T02:50:23;62.58;;;45.30;;
34236;SDS011;20501;45.956;13.632;2022-07-22T02:52:49;70.35;;;46.58;;
34236;SDS011;20501;45.956;13.632;2022-07-22T02:55:15;78.43;;;49.53;;
34236;SDS011;20501;45.956;13.632;2022-07-22T02:57:40;64.32;;;45.97;;
34236;SDS011;20501;45.956;13.632;2022-07-22T03:00:07;71.57;;;48.28;;
34236;SDS011;20501;45.956;13.632;2022-07-22T03:02:34;68.63;;;44.42;;
34236;SDS011;20501;45.956;13.632;2022-07-22T03:05:00;67.87;;;48.30;;
34236;SDS011;20501;45.956;13.632;2022-07-22T03:07:26;67.13;;;45.42;;
34236;SDS011;20501;45.956;13.632;2022-07-22T03:09:51;55.50;;;41.58;;
34236;SDS011;20501;45.956;13.632;2022-07-22T03:12:17;62.88;;;43.70;;
34236;SDS011;20501;45.956;13.632;2022-07-22T03:14:42;62.35;;;44.03;;
34236;SDS011;20501;45.956;13.632;2022-07-22T03:17:07;62.92;;;43.85;;
34236;SDS011;20501;45.956;13.632;2022-07-22T03:19:33;54.33;;;40.28;;
34236;SDS011;20501;45.956;13.632;2022-07-22T03:21:58;47.60;;;33.20;;
34236;SDS011;20501;45.956;13.632;2022-07-22T03:24:24;28.77;;;21.63;;
34236;SDS011;20501;45.956;13.632;2022-07-22T03:26:49;31.08;;;21.30;;
34236;SDS011;20501;45.956;13.632;2022-07-22T03:29:14;26.40;;;19.33;;
34236;SDS011;20501;45.956;13.632;2022-07-22T03:31:40;25.58;;;20.55;;
34236;SDS011;20501;45.956;13.632;2022-07-22T03:34:05;24.23;;;19.67;;
34236;SDS011;20501;45.956;13.632;2022-07-22T03:36:31;31.05;;;20.70;;
34236;SDS011;20501;45.956;13.632;2022-07-22T03:38:56;25.92;;;18.95;;
34236;SDS011;20501;45.956;13.632;2022-07-22T03:41:22;29.30;;;20.08;;
34236;SDS011;20501;45.956;13.632;2022-07-22T03:43:48;26.92;;;19.60;;
34236;SDS011;20501;45.956;13.632;2022-07-22T03:46:13;29.17;;;20.38;;
34236;SDS011;20501;45.956;13.632;2022-07-22T03:48:39;32.87;;;21.47;;
34236;SDS011;20501;45.956;13.632;2022-07-22T03:51:05;29.33;;;20.40;;
34236;SDS011;20501;45.956;13.632;2022-07-22T03:53:31;28.10;;;20.67;;
34236;SDS011;20501;45.956;13.632;2022-07-22T03:58:23;27.75;;;18.58;;
34236;SDS011;20501;45.956;13.632;2022-07-22T04:00:49;28.33;;;19.67;;
34236;SDS011;20501;45.956;13.632;2022-07-22T04:03:15;27.35;;;19.80;;
34236;SDS011;20501;45.956;13.632;2022-07-22T04:05:40;27.17;;;19.70;;
34236;SDS011;20501;45.956;13.632;2022-07-22T04:08:06;26.27;;;19.38;;
34236;SDS011;20501;45.956;13.632;2022-07-22T04:10:31;27.27;;;19.33;;
34236;SDS011;20501;45.956;13.632;2022-07-22T04:12:57;23.38;;;19.65;;
34236;SDS011;20501;45.956;13.632;2022-07-22T04:15:22;27.37;;;20.37;;
34236;SDS011;20501;45.956;13.632;2022-07-22T04:17:48;23.48;;;17.88;;
34236;SDS011;20501;45.956;13.632;2022-07-22T04:20:13;32.70;;;19.83;;
34236;SDS011;20501;45.956;13.632;2022-07-22T04:22:39;24.23;;;19.63;;
34236;SDS011;20501;45.956;13.632;2022-07-22T04:25:04;31.38;;;19.10;;
34236;SDS011;20501;45.956;13.632;2022-07-22T04:27:30;25.53;;;19.17;;
34236;SDS011;20501;45.956;13.632;2022-07-22T04:29:56;27.10;;;18.42;;
34236;SDS011;20501;45.956;13.632;2022-07-22T04:32:21;24.92;;;18.35;;
34236;SDS011;20501;45.956;13.632;2022-07-22T04:34:47;29.87;;;18.83;;
34236;SDS011;20501;45.956;13.632;2022-07-22T04:37:12;25.33;;;18.52;;
34236;SDS011;20501;45.956;13.632;2022-07-22T04:39:38;26.47;;;19.27;;
34236;SDS011;20501;45.956;13.632;2022-07-22T04:42:03;27.88;;;18.67;;
34236;SDS011;20501;45.956;13.632;2022-07-22T04:44:29;29.97;;;19.10;;
34236;SDS011;20501;45.956;13.632;2022-07-22T04:46:54;22.95;;;17.63;;
34236;SDS011;20501;45.956;13.632;2022-07-22T04:49:20;27.63;;;18.73;;
34236;SDS011;20501;45.956;13.632;2022-07-22T04:51:45;27.23;;;18.30;;
34236;SDS011;20501;45.956;13.632;2022-07-22T04:54:11;21.63;;;17.52;;
34236;SDS011;20501;45.956;13.632;2022-07-22T04:56:36;34.95;;;17.48;;
34236;SDS011;20501;45.956;13.632;2022-07-22T04:59:02;25.73;;;18.55;;
34236;SDS011;20501;45.956;13.632;2022-07-22T05:01:27;24.73;;;18.23;;
34236;SDS011;20501;45.956;13.632;2022-07-22T05:03:53;27.42;;;17.75;;
34236;SDS011;20501;45.956;13.632;2022-07-22T05:06:18;31.40;;;17.63;;
34236;SDS011;20501;45.956;13.632;2022-07-22T05:08:44;27.27;;;18.17;;
34236;SDS011;20501;45.956;13.632;2022-07-22T05:11:09;30.40;;;17.95;;
34236;SDS011;20501;45.956;13.632;2022-07-22T05:13:35;26.83;;;18.37;;
34236;SDS011;20501;45.956;13.632;2022-07-22T05:16:04;21.83;;;17.02;;
34236;SDS011;20501;45.956;13.632;2022-07-22T05:18:30;27.42;;;17.15;;
34236;SDS011;20501;45.956;13.632;2022-07-22T05:20:56;28.27;;;18.67;;
34236;SDS011;20501;45.956;13.632;2022-07-22T05:23:21;20.90;;;16.50;;
34236;SDS011;20501;45.956;13.632;2022-07-22T05:25:47;25.73;;;17.10;;
34236;SDS011;20501;45.956;13.632;2022-07-22T05:28:12;23.48;;;16.95;;
34236;SDS011;20501;45.956;13.632;2022-07-22T05:30:38;25.27;;;18.08;;
34236;SDS011;20501;45.956;13.632;2022-07-22T05:33:03;23.83;;;16.55;;
34236;SDS011;20501;45.956;13.632;2022-07-22T05:35:28;22.30;;;17.00;;
34236;SDS011;20501;45.956;13.632;2022-07-22T05:37:54;29.88;;;17.70;;
34236;SDS011;20501;45.956;13.632;2022-07-22T05:40:19;21.65;;;16.25;;
34236;SDS011;20501;45.956;13.632;2022-07-22T05:42:45;25.52;;;15.95;;
34236;SDS011;20501;45.956;13.632;2022-07-22T05:45:10;27.77;;;17.45;;
34236;SDS011;20501;45.956;13.632;2022-07-22T05:47:36;23.13;;;16.48;;
34236;SDS011;20501;45.956;13.632;2022-07-22T05:50:01;23.13;;;16.87;;
34236;SDS011;20501;45.956;13.632;2022-07-22T05:52:27;27.60;;;17.83;;
34236;SDS011;20501;45.956;13.632;2022-07-22T05:54:53;26.50;;;16.67;;
34236;SDS011;20501;45.956;13.632;2022-07-22T05:57:18;23.83;;;16.95;;
34236;SDS011;20501;45.956;13.632;2022-07-22T05:59:44;27.30;;;16.52;;
34236;SDS011;20501;45.956;13.632;2022-07-22T06:02:09;21.97;;;16.17;;
34236;SDS011;20501;45.956;13.632;2022-07-22T06:04:34;25.65;;;14.85;;
34236;SDS011;20501;45.956;13.632;2022-07-22T06:07:00;23.55;;;16.15;;
34236;SDS011;20501;45.956;13.632;2022-07-22T06:09:25;23.33;;;15.52;;
34236;SDS011;20501;45.956;13.632;2022-07-22T06:11:51;25.90;;;15.53;;
34236;SDS011;20501;45.956;13.632;2022-07-22T06:14:16;20.05;;;14.63;;
34236;SDS011;20501;45.956;13.632;2022-07-22T06:16:42;19.00;;;14.80;;
34236;SDS011;20501;45.956;13.632;2022-07-22T06:19:07;21.88;;;15.65;;
34236;SDS011;20501;45.956;13.632;2022-07-22T06:21:33;35.07;;;15.43;;
34236;SDS011;20501;45.956;13.632;2022-07-22T06:23:58;26.45;;;14.70;;
34236;SDS011;20501;45.956;13.632;2022-07-22T06:26:23;21.73;;;14.48;;
34236;SDS011;20501;45.956;13.632;2022-07-22T06:28:49;22.27;;;16.13;;
34236;SDS011;20501;45.956;13.632;2022-07-22T06:31:14;21.80;;;14.67;;
34236;SDS011;20501;45.956;13.632;2022-07-22T06:33:41;17.42;;;13.82;;
34236;SDS011;20501;45.956;13.632;2022-07-22T06:36:07;21.70;;;13.38;;
34236;SDS011;20501;45.956;13.632;2022-07-22T06:38:32;26.00;;;13.73;;
34236;SDS011;20501;45.956;13.632;2022-07-22T06:40:58;23.23;;;13.33;;
34236;SDS011;20501;45.956;13.632;2022-07-22T06:43:23;24.13;;;13.57;;
34236;SDS011;20501;45.956;13.632;2022-07-22T06:45:49;18.15;;;13.63;;
34236;SDS011;20501;45.956;13.632;2022-07-22T06:48:15;20.27;;;13.20;;
34236;SDS011;20501;45.956;13.632;2022-07-22T06:50:41;20.60;;;13.90;;
34236;SDS011;20501;45.956;13.632;2022-07-22T06:53:06;18.23;;;12.80;;
34236;SDS011;20501;45.956;13.632;2022-07-22T06:55:32;21.40;;;12.50;;
34236;SDS011;20501;45.956;13.632;2022-07-22T06:57:57;19.70;;;12.73;;
34236;SDS011;20501;45.956;13.632;2022-07-22T07:00:23;22.25;;;12.65;;
34236;SDS011;20501;45.956;13.632;2022-07-22T07:02:49;31.20;;;14.00;;
34236;SDS011;20501;45.956;13.632;2022-07-22T07:05:14;21.73;;;13.30;;
34236;SDS011;20501;45.956;13.632;2022-07-22T07:07:40;23.10;;;13.38;;
34236;SDS011;20501;45.956;13.632;2022-07-22T07:10:06;20.60;;;13.50;;
34236;SDS011;20501;45.956;13.632;2022-07-22T07:12:34;21.08;;;13.18;;
34236;SDS011;20501;45.956;13.632;2022-07-22T07:15:00;21.53;;;12.50;;
34236;SDS011;20501;45.956;13.632;2022-07-22T07:17:25;21.03;;;12.07;;
34236;SDS011;20501;45.956;13.632;2022-07-22T07:19:51;21.67;;;12.73;;
34236;SDS011;20501;45.956;13.632;2022-07-22T07:22:16;16.07;;;11.43;;
34236;SDS011;20501;45.956;13.632;2022-07-22T07:24:41;15.00;;;11.47;;
34236;SDS011;20501;45.956;13.632;2022-07-22T07:27:07;15.73;;;13.10;;
34236;SDS011;20501;45.956;13.632;2022-07-22T07:29:32;24.27;;;12.97;;
34236;SDS011;20501;45.956;13.632;2022-07-22T07:31:58;22.00;;;12.52;;
34236;SDS011;20501;45.956;13.632;2022-07-22T07:34:23;20.88;;;11.07;;
34236;SDS011;20501;45.956;13.632;2022-07-22T07:36:49;24.97;;;13.47;;
34236;SDS011;20501;45.956;13.632;2022-07-22T07:39:14;20.97;;;12.57;;
34236;SDS011;20501;45.956;13.632;2022-07-22T07:41:40;30.77;;;12.73;;
34236;SDS011;20501;45.956;13.632;2022-07-22T07:44:05;17.20;;;10.97;;
34236;SDS011;20501;45.956;13.632;2022-07-22T07:46:31;16.83;;;10.20;;
34236;SDS011;20501;45.956;13.632;2022-07-22T07:48:56;20.27;;;11.33;;
34236;SDS011;20501;45.956;13.632;2022-07-22T07:51:22;18.17;;;8.67;;
34236;SDS011;20501;45.956;13.632;2022-07-22T07:53:47;13.73;;;7.90;;
34236;SDS011;20501;45.956;13.632;2022-07-22T07:56:12;12.97;;;9.00;;
34236;SDS011;20501;45.956;13.632;2022-07-22T07:58:38;12.33;;;8.70;;
34236;SDS011;20501;45.956;13.632;2022-07-22T08:01:04;15.17;;;8.23;;
34236;SDS011;20501;45.956;13.632;2022-07-22T08:03:30;8.57;;;7.40;;
34236;SDS011;20501;45.956;13.632;2022-07-22T08:05:55;8.83;;;6.90;;
34236;SDS011;20501;45.956;13.632;2022-07-22T08:08:20;10.27;;;7.70;;
34236;SDS011;20501;45.956;13.632;2022-07-22T08:10:46;10.33;;;7.73;;
34236;SDS011;20501;45.956;13.632;2022-07-22T08:13:11;17.53;;;7.70;;
34236;SDS011;20501;45.956;13.632;2022-07-22T08:15:37;11.17;;;7.87;;
34236;SDS011;20501;45.956;13.632;2022-07-22T08:18:03;13.03;;;7.87;;
34236;SDS011;20501;45.956;13.632;2022-07-22T08:20:29;13.10;;;7.78;;
34236;SDS011;20501;45.956;13.632;2022-07-22T08:22:55;11.40;;;8.17;;
34236;SDS011;20501;45.956;13.632;2022-07-22T08:25:20;10.73;;;7.50;;
34236;SDS011;20501;45.956;13.632;2022-07-22T08:27:46;10.50;;;7.53;;
34236;SDS011;20501;45.956;13.632;2022-07-22T08:30:12;12.00;;;7.90;;
34236;SDS011;20501;45.956;13.632;2022-07-22T08:32:38;11.75;;;7.45;;
34236;SDS011;20501;45.956;13.632;2022-07-22T08:35:04;8.57;;;6.33;;
34236;SDS011;20501;45.956;13.632;2022-07-22T08:37:30;13.13;;;7.53;;
34236;SDS011;20501;45.956;13.632;2022-07-22T08:39:56;14.63;;;7.67;;
34236;SDS011;20501;45.956;13.632;2022-07-22T08:42:23;12.07;;;7.70;;
34236;SDS011;20501;45.956;13.632;2022-07-22T08:44:49;11.32;;;6.88;;
34236;SDS011;20501;45.956;13.632;2022-07-22T08:47:20;12.88;;;6.75;;
34236;SDS011;20501;45.956;13.632;2022-07-22T08:49:46;11.00;;;6.97;;
34236;SDS011;20501;45.956;13.632;2022-07-22T08:52:12;9.97;;;6.30;;
34236;SDS011;20501;45.956;13.632;2022-07-22T08:54:37;9.57;;;5.70;;
34236;SDS011;20501;45.956;13.632;2022-07-22T08:57:02;12.93;;;7.00;;
34236;SDS011;20501;45.956;13.632;2022-07-22T08:59:28;10.03;;;6.23;;
34236;SDS011;20501;45.956;13.632;2022-07-22T09:02:06;11.97;;;6.10;;
34236;SDS011;20501;45.956;13.632;2022-07-22T09:04:50;7.60;;;5.10;;
34236;SDS011;20501;45.956;13.632;2022-07-22T09:07:35;8.50;;;5.05;;
34236;SDS011;20501;45.956;13.632;2022-07-22T09:10:08;7.18;;;4.72;;
34236;SDS011;20501;45.956;13.632;2022-07-22T09:12:52;5.78;;;5.28;;
34236;SDS011;20501;45.956;13.632;2022-07-22T09:17:57;8.35;;;5.07;;
34236;SDS011;20501;45.956;13.632;2022-07-22T09:20:23;8.65;;;6.03;;
34236;SDS011;20501;45.956;13.632;2022-07-22T09:22:49;6.33;;;5.60;;
34236;SDS011;20501;45.956;13.632;2022-07-22T09:25:26;10.02;;;5.85;;
34236;SDS011;20501;45.956;13.632;2022-07-22T09:27:55;8.65;;;6.53;;
34236;SDS011;20501;45.956;13.632;2022-07-22T09:30:51;8.35;;;6.63;;
34236;SDS011;20501;45.956;13.632;2022-07-22T09:35:44;16.48;;;11.60;;
34236;SDS011;20501;45.956;13.632;2022-07-22T09:38:11;18.80;;;13.57;;
34236;SDS011;20501;45.956;13.632;2022-07-22T09:40:44;20.50;;;14.90;;
34236;SDS011;20501;45.956;13.632;2022-07-22T09:43:14;23.90;;;15.88;;
34236;SDS011;20501;45.956;13.632;2022-07-22T09:45:55;22.33;;;14.98;;
34236;SDS011;20501;45.956;13.632;2022-07-22T09:48:25;21.05;;;15.32;;
34236;SDS011;20501;45.956;13.632;2022-07-22T09:50:51;20.00;;;14.17;;
34236;SDS011;20501;45.956;13.632;2022-07-22T09:53:19;20.38;;;15.23;;
34236;SDS011;20501;45.956;13.632;2022-07-22T09:55:46;11.55;;;9.40;;
34236;SDS011;20501;45.956;13.632;2022-07-22T09:58:12;13.57;;;9.95;;
34236;SDS011;20501;45.956;13.632;2022-07-22T10:00:38;14.50;;;10.57;;
34236;SDS011;20501;45.956;13.632;2022-07-22T10:03:06;14.18;;;11.02;;
34236;SDS011;20501;45.956;13.632;2022-07-22T10:05:36;21.30;;;14.70;;
34236;SDS011;20501;45.956;13.632;2022-07-22T10:08:04;23.50;;;15.63;;
34236;SDS011;20501;45.956;13.632;2022-07-22T10:10:31;23.35;;;17.40;;
34236;SDS011;20501;45.956;13.632;2022-07-22T10:12:58;22.10;;;17.88;;
34236;SDS011;20501;45.956;13.632;2022-07-22T10:15:26;26.70;;;19.58;;
34236;SDS011;20501;45.956;13.632;2022-07-22T10:17:53;33.75;;;22.75;;
34236;SDS011;20501;45.956;13.632;2022-07-22T10:20:24;38.22;;;28.00;;
34236;SDS011;20501;45.956;13.632;2022-07-22T10:25:52;38.92;;;27.30;;
34236;SDS011;20501;45.956;13.632;2022-07-22T10:28:26;37.35;;;29.45;;
34236;SDS011;20501;45.956;13.632;2022-07-22T10:30:52;35.92;;;27.02;;
34236;SDS011;20501;45.956;13.632;2022-07-22T10:33:38;31.77;;;25.67;;
34236;SDS011;20501;45.956;13.632;2022-07-22T10:38:30;35.42;;;26.40;;
34236;SDS011;20501;45.956;13.632;2022-07-22T10:41:06;35.85;;;25.70;;
34236;SDS011;20501;45.956;13.632;2022-07-22T10:46:07;27.20;;;21.80;;
34236;SDS011;20501;45.956;13.632;2022-07-22T10:51:11;35.07;;;19.77;;
34236;SDS011;20501;45.956;13.632;2022-07-22T10:56:13;20.70;;;16.17;;
34236;SDS011;20501;45.956;13.632;2022-07-22T10:58:40;25.80;;;15.65;;
34236;SDS011;20501;45.956;13.632;2022-07-22T11:01:08;56.25;;;19.15;;
34236;SDS011;20501;45.956;13.632;2022-07-22T11:03:36;25.08;;;16.05;;
34236;SDS011;20501;45.956;13.632;2022-07-22T11:08:53;21.95;;;14.77;;
34236;SDS011;20501;45.956;13.632;2022-07-22T11:14:03;20.08;;;15.90;;
34236;SDS011;20501;45.956;13.632;2022-07-22T11:16:36;24.45;;;15.38;;
34236;SDS011;20501;45.956;13.632;2022-07-22T11:22:23;35.70;;;16.98;;
34236;SDS011;20501;45.956;13.632;2022-07-22T11:24:48;35.63;;;16.33;;
34236;SDS011;20501;45.956;13.632;2022-07-22T11:27:15;31.30;;;16.30;;
34236;SDS011;20501;45.956;13.632;2022-07-22T11:29:42;17.63;;;14.00;;
34236;SDS011;20501;45.956;13.632;2022-07-22T11:32:11;15.27;;;13.30;;
34236;SDS011;20501;45.956;13.632;2022-07-22T11:34:41;16.63;;;13.05;;
34236;SDS011;20501;45.956;13.632;2022-07-22T11:37:10;18.05;;;13.38;;
34236;SDS011;20501;45.956;13.632;2022-07-22T11:39:36;16.70;;;13.98;;
34236;SDS011;20501;45.956;13.632;2022-07-22T11:42:02;21.53;;;12.97;;
34236;SDS011;20501;45.956;13.632;2022-07-22T11:44:29;15.90;;;12.43;;
34236;SDS011;20501;45.956;13.632;2022-07-22T11:46:55;23.35;;;13.32;;
34236;SDS011;20501;45.956;13.632;2022-07-22T11:49:24;17.10;;;12.77;;
34236;SDS011;20501;45.956;13.632;2022-07-22T11:51:51;16.98;;;12.80;;
34236;SDS011;20501;45.956;13.632;2022-07-22T11:54:16;18.50;;;12.30;;
34236;SDS011;20501;45.956;13.632;2022-07-22T11:56:42;16.40;;;13.80;;
34236;SDS011;20501;45.956;13.632;2022-07-22T11:59:11;22.83;;;13.23;;
34236;SDS011;20501;45.956;13.632;2022-07-22T12:01:38;17.75;;;13.50;;
34236;SDS011;20501;45.956;13.632;2022-07-22T12:04:06;19.35;;;13.15;;
34236;SDS011;20501;45.956;13.632;2022-07-22T12:06:35;15.00;;;12.88;;
34236;SDS011;20501;45.956;13.632;2022-07-22T12:11:37;16.77;;;12.93;;
34236;SDS011;20501;45.956;13.632;2022-07-22T12:14:06;20.63;;;13.45;;
34236;SDS011;20501;45.956;13.632;2022-07-22T12:16:53;17.38;;;13.60;;
34236;SDS011;20501;45.956;13.632;2022-07-22T12:19:24;18.15;;;14.48;;
34236;SDS011;20501;45.956;13.632;2022-07-22T12:22:03;20.50;;;13.85;;
34236;SDS011;20501;45.956;13.632;2022-07-22T12:24:34;19.33;;;13.10;;
34236;SDS011;20501;45.956;13.632;2022-07-22T12:27:06;15.65;;;12.45;;
34236;SDS011;20501;45.956;13.632;2022-07-22T12:32:02;21.50;;;14.10;;
34236;SDS011;20501;45.956;13.632;2022-07-22T12:34:33;18.23;;;13.80;;
34236;SDS011;20501;45.956;13.632;2022-07-22T12:36:59;16.73;;;12.80;;
34236;SDS011;20501;45.956;13.632;2022-07-22T12:39:27;22.40;;;13.88;;
34236;SDS011;20501;45.956;13.632;2022-07-22T12:41:53;16.83;;;12.90;;
34236;SDS011;20501;45.956;13.632;2022-07-22T12:44:21;18.52;;;13.80;;
34236;SDS011;20501;45.956;13.632;2022-07-22T12:46:52;17.75;;;14.85;;
34236;SDS011;20501;45.956;13.632;2022-07-22T12:49:20;21.38;;;15.43;;
34236;SDS011;20501;45.956;13.632;2022-07-22T12:54:34;19.65;;;14.85;;
34236;SDS011;20501;45.956;13.632;2022-07-22T12:57:01;19.75;;;15.20;;
34236;SDS011;20501;45.956;13.632;2022-07-22T12:59:28;17.73;;;14.75;;
34236;SDS011;20501;45.956;13.632;2022-07-22T13:01:54;18.47;;;13.73;;
34236;SDS011;20501;45.956;13.632;2022-07-22T13:04:19;15.90;;;14.17;;
34236;SDS011;20501;45.956;13.632;2022-07-22T13:06:44;20.23;;;17.27;;
34236;SDS011;20501;45.956;13.632;2022-07-22T13:09:10;23.53;;;18.27;;
34236;SDS011;20501;45.956;13.632;2022-07-22T13:11:35;18.60;;;16.60;;
34236;SDS011;20501;45.956;13.632;2022-07-22T13:14:05;32.90;;;16.75;;
34236;SDS011;20501;45.956;13.632;2022-07-22T13:16:30;21.05;;;16.25;;
34236;SDS011;20501;45.956;13.632;2022-07-22T13:18:56;20.10;;;15.83;;
34236;SDS011;20501;45.956;13.632;2022-07-22T13:21:22;23.80;;;18.53;;
34236;SDS011;20501;45.956;13.632;2022-07-22T13:23:47;19.43;;;14.53;;
34236;SDS011;20501;45.956;13.632;2022-07-22T13:26:12;19.17;;;15.23;;
34236;SDS011;20501;45.956;13.632;2022-07-22T13:28:38;20.17;;;15.20;;
34236;SDS011;20501;45.956;13.632;2022-07-22T13:31:03;24.20;;;15.93;;
34236;SDS011;20501;45.956;13.632;2022-07-22T13:33:29;22.73;;;15.50;;
34236;SDS011;20501;45.956;13.632;2022-07-22T13:35:54;27.93;;;20.03;;
34236;SDS011;20501;45.956;13.632;2022-07-22T13:38:20;22.47;;;17.77;;
34236;SDS011;20501;45.956;13.632;2022-07-22T13:40:45;20.37;;;15.67;;
34236;SDS011;20501;45.956;13.632;2022-07-22T13:43:17;19.88;;;16.25;;
34236;SDS011;20501;45.956;13.632;2022-07-22T13:45:43;20.95;;;17.92;;
34236;SDS011;20501;45.956;13.632;2022-07-22T13:48:09;25.23;;;18.43;;
34236;SDS011;20501;45.956;13.632;2022-07-22T13:50:34;23.63;;;18.17;;
34236;SDS011;20501;45.956;13.632;2022-07-22T13:53:00;23.57;;;18.97;;
34236;SDS011;20501;45.956;13.632;2022-07-22T13:55:25;30.07;;;20.13;;
34236;SDS011;20501;45.956;13.632;2022-07-22T13:57:51;24.52;;;19.88;;
34236;SDS011;20501;45.956;13.632;2022-07-22T14:00:17;22.80;;;18.70;;
34236;SDS011;20501;45.956;13.632;2022-07-22T14:02:43;24.93;;;21.37;;
34236;SDS011;20501;45.956;13.632;2022-07-22T14:07:35;29.95;;;24.45;;
34236;SDS011;20501;45.956;13.632;2022-07-22T14:10:00;33.03;;;26.53;;
34236;SDS011;20501;45.956;13.632;2022-07-22T14:12:26;34.73;;;28.00;;
34236;SDS011;20501;45.956;13.632;2022-07-22T14:14:52;42.87;;;33.33;;
34236;SDS011;20501;45.956;13.632;2022-07-22T14:17:17;37.40;;;30.43;;
34236;SDS011;20501;45.956;13.632;2022-07-22T14:19:43;39.10;;;33.60;;
34236;SDS011;20501;45.956;13.632;2022-07-22T14:22:08;48.23;;;36.80;;
34236;SDS011;20501;45.956;13.632;2022-07-22T14:24:34;49.07;;;40.97;;
34236;SDS011;20501;45.956;13.632;2022-07-22T14:26:59;38.70;;;33.03;;
34236;SDS011;20501;45.956;13.632;2022-07-22T14:29:25;38.37;;;30.37;;
34236;SDS011;20501;45.956;13.632;2022-07-22T14:31:50;34.77;;;29.67;;
34236;SDS011;20501;45.956;13.632;2022-07-22T14:34:16;37.53;;;30.37;;
34236;SDS011;20501;45.956;13.632;2022-07-22T14:36:41;34.03;;;27.80;;
34236;SDS011;20501;45.956;13.632;2022-07-22T14:39:07;36.77;;;30.27;;
34236;SDS011;20501;45.956;13.632;2022-07-22T14:41:33;37.33;;;29.57;;
34236;SDS011;20501;45.956;13.632;2022-07-22T14:43:58;45.97;;;32.60;;
34236;SDS011;20501;45.956;13.632;2022-07-22T14:46:24;39.00;;;32.27;;
34236;SDS011;20501;45.956;13.632;2022-07-22T14:48:49;43.10;;;34.83;;
34236;SDS011;20501;45.956;13.632;2022-07-22T14:51:18;42.33;;;30.73;;